createdAt,value
2019-06-07T00:01:05.321Z,64.32
2019-06-07T00:06:07.826Z,64.43
2019-06-07T00:11:14.987Z,64.56
2019-06-07T00:16:16.996Z,64.55
2019-06-07T00:21:20.145Z,64.82
2019-06-07T00:26:21.436Z,65.09
2019-06-07T00:31:24.771Z,65.34
2019-06-07T00:36:26.603Z,65.41
2019-06-07T00:41:28.165Z,65.30
2019-06-07T00:46:29.712Z,65.41
2019-06-07T00:51:49.433Z,65.45
2019-06-07T00:56:34.836Z,65.54
2019-06-07T01:01:36.551Z,65.66
2019-06-07T01:06:38.226Z,65.68
2019-06-07T01:11:39.870Z,66.13
2019-06-07T01:16:56.604Z,66.33
2019-06-07T01:21:45.117Z,66.32
2019-06-07T01:26:46.656Z,66.18
2019-06-07T01:31:48.222Z,66.02
2019-06-07T01:36:49.788Z,66.08
2019-06-07T01:41:51.400Z,66.19
2019-06-07T01:46:52.883Z,66.26
2019-06-07T01:51:54.582Z,66.50
2019-06-07T01:56:56.139Z,66.88
2019-06-07T02:01:57.698Z,67.04
2019-06-07T02:06:59.260Z,67.18
2019-06-07T02:12:00.850Z,67.11
2019-06-07T02:17:02.569Z,66.92
2019-06-07T02:22:04.301Z,66.94
2019-06-07T02:27:05.827Z,66.87
2019-06-07T02:32:07.390Z,67.12
2019-06-07T02:37:09.073Z,67.16
2019-06-07T02:42:10.642Z,67.24
2019-06-07T02:47:12.229Z,67.16
2019-06-07T02:52:13.825Z,67.27
2019-06-07T02:57:15.401Z,67.56
2019-06-07T03:02:17.223Z,67.40
2019-06-07T03:07:18.945Z,67.30
2019-06-07T03:12:21.607Z,67.29
2019-06-07T03:18:01.283Z,67.48
2019-06-07T03:23:04.052Z,67.30
2019-06-07T03:28:05.646Z,67.32
2019-06-07T03:33:07.218Z,67.27
2019-06-07T03:38:08.805Z,67.19
2019-06-07T03:43:10.476Z,67.16
2019-06-07T03:48:12.046Z,67.07
2019-06-07T03:53:13.613Z,67.04
2019-06-07T03:58:31.185Z,67.15
2019-06-07T04:03:33.509Z,67.27
2019-06-07T04:08:22.171Z,67.49
2019-06-07T04:13:23.772Z,67.56
2019-06-07T04:18:25.362Z,67.54
2019-06-07T04:23:29.859Z,67.64
2019-06-07T04:29:25.998Z,67.73
2019-06-07T04:33:36.338Z,67.75
2019-06-07T04:38:40.594Z,67.91
2019-06-07T04:43:42.881Z,67.86
2019-06-07T04:48:45.083Z,68.01
2019-06-07T04:53:46.643Z,67.98
2019-06-07T04:58:48.196Z,68.08
2019-06-07T05:09:08.202Z,68.11
2019-06-07T05:14:09.896Z,67.87
2019-06-07T05:19:11.576Z,67.58
2019-06-07T05:24:13.139Z,67.45
2019-06-07T05:29:14.802Z,67.03
2019-06-07T05:34:16.624Z,67.10
2019-06-07T05:39:18.186Z,66.75
2019-06-07T05:44:19.757Z,66.76
2019-06-07T05:49:21.420Z,66.54
2019-06-07T05:54:22.968Z,66.27
2019-06-07T05:59:24.523Z,66.25
2019-06-07T06:04:26.096Z,65.90
2019-06-07T06:09:27.860Z,65.63
2019-06-07T06:14:29.429Z,65.90
2019-06-07T06:19:30.992Z,65.88
2019-06-07T06:24:32.561Z,66.12
2019-06-07T06:29:34.121Z,66.39
2019-06-07T06:34:39.441Z,66.50
2019-06-07T06:39:39.564Z,66.32
2019-06-07T06:44:43.821Z,65.98
2019-06-07T06:49:46.865Z,65.72
2019-06-07T06:54:55.374Z,65.46
2019-06-07T06:59:52.841Z,65.34
2019-06-07T07:04:54.510Z,64.72
2019-06-07T07:09:59.282Z,64.41
2019-06-07T07:14:59.609Z,64.63
2019-06-07T07:20:01.180Z,64.76
2019-06-07T07:25:03.741Z,64.63
2019-06-07T07:30:35.291Z,64.60
2019-06-07T07:35:09.620Z,64.81
2019-06-07T07:40:55.298Z,64.67
2019-06-07T07:45:15.176Z,64.72
2019-06-07T07:50:16.892Z,64.80
2019-06-07T07:55:18.630Z,64.60
2019-06-07T08:05:41.621Z,63.42
2019-06-07T08:10:27.808Z,62.66
2019-06-07T08:15:29.364Z,62.02
2019-06-07T08:20:31.058Z,61.72
2019-06-07T08:25:33.903Z,61.26
2019-06-07T08:30:50.192Z,61.26
2019-06-07T08:40:42.685Z,61.46
2019-06-07T08:45:44.359Z,61.52
2019-06-07T08:50:45.933Z,61.40
2019-06-07T08:55:47.532Z,60.84
2019-06-07T09:00:49.088Z,60.04
2019-06-07T09:05:53.363Z,59.86
2019-06-07T09:10:56.594Z,59.27
2019-06-07T09:16:03.416Z,59.11
2019-06-07T09:21:07.067Z,58.88
2019-06-07T09:26:15.633Z,58.59
2019-06-07T09:31:10.399Z,58.30
2019-06-07T09:36:13.282Z,58.09
2019-06-07T09:41:15.235Z,58.40
2019-06-07T09:46:17.107Z,59.30
2019-06-07T09:51:20.440Z,59.80
2019-06-07T09:56:22.356Z,60.42
2019-06-07T10:01:23.944Z,60.24
2019-06-07T10:06:25.641Z,60.23
2019-06-07T10:11:27.203Z,59.32
2019-06-07T10:16:28.837Z,58.60
2019-06-07T10:21:30.433Z,57.79
2019-06-07T10:26:32.004Z,57.45
2019-06-07T10:31:33.549Z,57.63
2019-06-07T10:36:35.217Z,57.33
2019-06-07T10:41:37.121Z,56.26
2019-06-07T10:46:38.757Z,55.84
2019-06-07T10:51:40.313Z,55.47
2019-06-07T11:12:59.377Z,56.47
2019-06-07T11:18:00.977Z,56.13
2019-06-07T11:23:02.605Z,55.58
2019-06-07T11:28:04.270Z,55.33
2019-06-07T12:10:21.206Z,55.12
2019-06-07T12:15:20.917Z,55.11
2019-06-07T12:25:45.323Z,27.47
2019-06-07T12:30:47.065Z,40.44
2019-06-07T12:35:48.655Z,49.32
2019-06-07T12:40:57.643Z,51.35
2019-06-07T12:45:53.857Z,39.16
2019-06-07T12:50:55.405Z,32.15
2019-06-07T12:55:59.991Z,44.14
2019-06-07T13:01:00.569Z,48.44
2019-06-07T13:06:02.180Z,40.28
2019-06-07T13:11:15.708Z,48.41
2019-06-07T13:16:07.546Z,49.83
2019-06-07T13:21:09.098Z,51.87
2019-06-07T13:26:10.646Z,51.92
2019-06-07T13:31:12.239Z,35.38
2019-06-07T13:36:13.785Z,33.66
2019-06-07T13:41:30.246Z,37.34
2019-06-07T13:46:20.862Z,44.55
2019-06-07T13:51:23.313Z,39.89
2019-06-07T13:56:26.192Z,45.08
2019-06-07T14:01:29.022Z,42.89
2019-06-07T14:06:30.782Z,44.42
2019-06-07T14:11:49.406Z,43.49
2019-06-07T14:16:35.969Z,34.18
2019-06-07T14:21:37.550Z,25.66
2019-06-07T14:26:41.979Z,23.71
2019-06-07T14:31:43.706Z,22.52
2019-06-07T14:36:45.273Z,23.52
2019-06-07T14:41:46.845Z,23.52
2019-06-07T14:46:48.415Z,22.84
2019-06-07T14:51:49.999Z,24.32
2019-06-07T14:56:51.547Z,23.03
2019-06-07T15:01:53.162Z,22.67
2019-06-07T15:06:54.759Z,24.82
2019-06-07T15:11:56.373Z,24.01
2019-06-07T15:16:57.996Z,23.52
2019-06-07T15:21:59.567Z,22.85
2019-06-07T15:27:01.139Z,22.90
2019-06-07T15:32:02.954Z,23.22
2019-06-07T15:37:04.634Z,24.50
2019-06-07T15:42:06.170Z,25.70
2019-06-07T15:47:07.757Z,26.73
2019-06-07T15:52:09.456Z,27.49
2019-06-07T15:57:10.998Z,28.06
2019-06-07T16:02:12.678Z,29.08
2019-06-07T16:07:14.336Z,29.79
2019-06-07T16:12:15.966Z,30.64
2019-06-07T16:17:17.541Z,30.82
2019-06-07T16:22:19.096Z,31.26
2019-06-07T16:27:20.658Z,32.71
2019-06-07T16:32:22.238Z,35.74
2019-06-07T16:37:23.806Z,37.93
2019-06-07T16:42:25.391Z,40.29
2019-06-07T16:47:26.946Z,40.66
2019-06-07T16:52:28.592Z,39.82
2019-06-07T16:57:30.174Z,39.23
2019-06-07T17:02:31.715Z,39.21
2019-06-07T17:07:33.333Z,37.87
2019-06-07T17:12:35.114Z,37.04
2019-06-07T17:17:36.766Z,36.58
2019-06-07T17:22:39.059Z,36.73
2019-06-07T17:27:42.049Z,37.50
2019-06-07T17:32:55.081Z,37.71
2019-06-07T17:37:48.210Z,37.93
2019-06-07T17:42:51.077Z,38.14
2019-06-07T17:47:52.930Z,38.41
2019-06-07T17:52:54.606Z,38.55
2019-06-07T17:57:56.278Z,38.57
2019-06-07T18:02:57.844Z,38.79
2019-06-07T18:07:59.910Z,39.01
2019-06-07T18:13:01.560Z,39.51
2019-06-07T18:18:03.723Z,40.04
2019-06-07T18:23:05.514Z,40.47
2019-06-07T18:28:07.328Z,40.97
2019-06-07T18:33:09.176Z,41.64
2019-06-07T18:38:11.238Z,42.31
2019-06-07T18:43:12.897Z,42.85
2019-06-07T18:48:14.631Z,43.46
2019-06-07T18:53:16.210Z,44.01
2019-06-07T18:58:17.754Z,44.93
2019-06-07T19:03:19.319Z,45.80
2019-06-07T19:08:20.872Z,46.12
2019-06-07T19:13:22.428Z,46.44
2019-06-07T19:18:23.989Z,46.84
2019-06-07T19:23:25.531Z,47.28
2019-06-07T19:28:27.099Z,47.64
2019-06-07T19:33:28.657Z,47.93
2019-06-07T19:38:30.238Z,48.15
2019-06-07T19:43:31.796Z,48.28
2019-06-07T19:48:33.371Z,48.54
2019-06-07T19:53:34.911Z,48.82
2019-06-07T19:58:36.486Z,49.52
2019-06-07T20:03:38.046Z,49.52
2019-06-07T20:08:39.595Z,49.55
2019-06-07T20:13:41.286Z,49.76
2019-06-07T20:18:42.943Z,49.99
2019-06-07T20:23:44.489Z,50.14
2019-06-07T20:28:46.133Z,50.29
2019-06-07T20:33:47.693Z,50.50
2019-06-07T20:38:49.254Z,50.57
2019-06-07T20:43:50.823Z,50.75
2019-06-07T20:48:52.420Z,50.99
2019-06-07T20:53:53.976Z,51.13
2019-06-07T20:58:55.530Z,51.28
2019-06-07T21:03:57.100Z,51.79
2019-06-07T21:08:59.327Z,51.79
2019-06-07T21:14:02.021Z,52.04
2019-06-07T21:19:04.194Z,52.21
2019-06-07T21:24:06.793Z,52.39
2019-06-07T21:29:09.337Z,52.59
2019-06-07T21:34:14.015Z,52.76
2019-06-07T21:39:14.598Z,52.91
2019-06-07T21:44:16.151Z,53.39
2019-06-07T21:49:17.709Z,53.39
2019-06-07T21:54:19.265Z,53.34
2019-06-07T21:59:20.822Z,53.43
2019-06-07T22:04:22.376Z,53.57
2019-06-07T22:09:23.964Z,53.81
2019-06-07T22:14:25.616Z,54.01
2019-06-07T22:19:27.249Z,54.20
2019-06-07T22:24:28.818Z,54.35
2019-06-07T22:29:30.397Z,54.59
2019-06-07T22:34:31.981Z,54.84
2019-06-07T22:39:33.561Z,55.04
2019-06-07T22:44:35.119Z,55.22
2019-06-07T22:49:36.667Z,55.70
2019-06-07T22:54:38.247Z,56.11
2019-06-07T22:59:39.812Z,56.49
2019-06-07T23:04:41.404Z,56.77
2019-06-07T23:09:42.978Z,57.19
2019-06-07T23:14:44.582Z,57.32
2019-06-07T23:19:46.149Z,57.46
2019-06-07T23:24:47.704Z,57.36
2019-06-07T23:29:49.264Z,57.70
2019-06-07T23:34:50.818Z,58.02
2019-06-07T23:39:52.411Z,58.19
2019-06-07T23:44:54.094Z,58.07
2019-06-07T23:49:55.654Z,58.15
2019-06-07T23:54:57.209Z,58.05
2019-06-07T23:59:58.766Z,58.12
